createdAt,value
2017-12-03T00:01:39.730Z,31.52
2017-12-03T00:04:07.289Z,30.37
2017-12-03T00:06:34.809Z,27.92
2017-12-03T00:09:02.362Z,30.48
2017-12-03T00:11:29.900Z,32.70
2017-12-03T00:13:57.541Z,29.45
2017-12-03T00:16:25.499Z,28.17
2017-12-03T00:18:53.158Z,29.30
2017-12-03T00:21:20.777Z,28.67
2017-12-03T00:23:48.540Z,27.80
2017-12-03T00:26:16.050Z,27.40
2017-12-03T00:28:43.578Z,27.58
2017-12-03T00:31:11.161Z,28.85
2017-12-03T00:33:38.720Z,25.45
2017-12-03T00:36:06.255Z,29.20
2017-12-03T00:38:34.042Z,27.35
2017-12-03T00:41:01.626Z,28.90
2017-12-03T00:43:29.357Z,32.45
2017-12-03T00:45:57.141Z,30.55
2017-12-03T00:48:24.706Z,28.85
2017-12-03T00:50:52.349Z,25.88
2017-12-03T00:53:19.942Z,29.67
2017-12-03T00:55:47.569Z,27.15
2017-12-03T00:58:15.131Z,29.00
2017-12-03T01:00:42.705Z,28.95
2017-12-03T01:03:10.246Z,30.33
2017-12-03T01:05:37.758Z,26.95
2017-12-03T01:08:05.549Z,29.00
2017-12-03T01:10:33.171Z,28.40
2017-12-03T01:13:00.790Z,29.23
2017-12-03T01:15:28.554Z,28.35
2017-12-03T01:17:56.132Z,24.90
2017-12-03T01:20:23.658Z,28.10
2017-12-03T01:22:51.333Z,30.05
2017-12-03T01:25:18.846Z,29.45
2017-12-03T01:27:46.372Z,28.30
2017-12-03T01:30:14.113Z,26.87
2017-12-03T01:32:41.671Z,28.15
2017-12-03T01:35:09.186Z,28.27
2017-12-03T01:37:36.899Z,28.55
2017-12-03T01:40:04.452Z,30.12
2017-12-03T01:42:32.012Z,29.73
2017-12-03T01:44:59.698Z,26.65
2017-12-03T01:47:27.219Z,29.10
2017-12-03T01:49:54.726Z,29.92
2017-12-03T01:52:22.452Z,27.15
2017-12-03T01:54:50.014Z,24.17
2017-12-03T01:57:17.578Z,23.90
2017-12-03T01:59:45.127Z,27.85
2017-12-03T02:02:12.704Z,27.90
2017-12-03T02:04:40.248Z,26.27
2017-12-03T02:07:07.802Z,25.58
2017-12-03T02:09:35.322Z,25.73
2017-12-03T02:12:02.838Z,26.45
2017-12-03T02:14:30.418Z,26.17
2017-12-03T02:16:57.945Z,26.30
2017-12-03T02:19:25.507Z,28.95
2017-12-03T02:21:53.263Z,26.95
2017-12-03T02:24:20.790Z,27.23
2017-12-03T02:26:48.307Z,26.58
2017-12-03T02:29:15.882Z,25.48
2017-12-03T02:31:43.398Z,27.33
2017-12-03T02:34:10.906Z,27.92
2017-12-03T02:36:38.619Z,26.80
2017-12-03T02:39:06.134Z,28.73
2017-12-03T02:41:33.651Z,29.17
2017-12-03T02:44:01.503Z,30.08
2017-12-03T02:46:29.063Z,26.37
2017-12-03T02:48:56.620Z,29.25
2017-12-03T02:51:24.384Z,28.52
2017-12-03T02:53:51.943Z,25.05
2017-12-03T02:56:19.458Z,27.30
2017-12-03T02:58:47.061Z,28.87
2017-12-03T03:01:14.662Z,26.70
2017-12-03T03:03:42.178Z,26.98
2017-12-03T03:06:09.943Z,27.45
2017-12-03T03:08:37.502Z,25.98
2017-12-03T03:11:05.087Z,28.35
2017-12-03T03:13:32.726Z,29.10
2017-12-03T03:16:00.246Z,28.30
2017-12-03T03:18:27.759Z,27.85
2017-12-03T03:20:55.502Z,29.42
2017-12-03T03:23:23.062Z,28.23
2017-12-03T03:25:50.577Z,28.27
2017-12-03T03:28:18.134Z,28.12
2017-12-03T03:30:45.678Z,28.30
2017-12-03T03:33:13.204Z,27.30
2017-12-03T03:35:40.958Z,28.00
2017-12-03T03:38:08.470Z,27.70
2017-12-03T03:40:35.982Z,29.85
2017-12-03T03:43:03.840Z,29.20
2017-12-03T03:45:31.357Z,28.23
2017-12-03T03:47:58.883Z,30.50
2017-12-03T03:50:26.614Z,27.83
2017-12-03T03:52:54.130Z,30.12
2017-12-03T03:55:21.654Z,29.50
2017-12-03T03:57:49.198Z,27.50
2017-12-03T04:00:16.759Z,29.75
2017-12-03T04:02:44.316Z,29.58
2017-12-03T04:05:11.878Z,29.15
2017-12-03T04:07:39.432Z,30.10
2017-12-03T04:10:06.944Z,29.50
2017-12-03T04:12:34.494Z,27.73
2017-12-03T04:15:02.018Z,28.45
2017-12-03T04:17:29.588Z,27.73
2017-12-03T04:19:57.245Z,28.83
2017-12-03T04:22:24.792Z,28.73
2017-12-03T04:24:52.325Z,28.27
2017-12-03T04:27:19.893Z,29.27
2017-12-03T04:29:47.414Z,28.00
2017-12-03T04:32:14.926Z,28.00
2017-12-03T04:34:42.476Z,30.35
2017-12-03T04:37:09.994Z,29.85
2017-12-03T04:39:37.523Z,28.77
2017-12-03T04:42:05.167Z,28.27
2017-12-03T04:44:32.716Z,28.33
2017-12-03T04:47:00.275Z,29.90
2017-12-03T04:49:28.039Z,28.00
2017-12-03T04:51:55.605Z,27.95
2017-12-03T04:54:23.158Z,30.10
2017-12-03T04:56:51.006Z,27.80
2017-12-03T04:59:18.518Z,26.52
2017-12-03T05:01:46.039Z,27.20
2017-12-03T05:04:13.711Z,28.80
2017-12-03T05:06:41.261Z,24.92
2017-12-03T05:09:08.820Z,29.00
2017-12-03T05:11:36.510Z,27.52
2017-12-03T05:14:04.033Z,27.27
2017-12-03T05:16:31.546Z,26.08
2017-12-03T05:18:59.094Z,27.58
2017-12-03T05:21:26.615Z,26.08
2017-12-03T05:23:54.154Z,25.88
2017-12-03T05:26:21.733Z,26.65
2017-12-03T05:28:49.292Z,27.45
2017-12-03T05:31:16.870Z,27.17
2017-12-03T05:33:44.720Z,26.98
2017-12-03T05:36:12.286Z,27.92
2017-12-03T05:38:39.839Z,26.20
2017-12-03T05:41:07.702Z,27.58
2017-12-03T05:43:35.264Z,25.20
2017-12-03T05:46:02.838Z,26.62
2017-12-03T05:48:30.382Z,24.90
2017-12-03T05:50:57.894Z,26.42
2017-12-03T05:53:25.411Z,25.25
2017-12-03T05:55:53.134Z,25.98
2017-12-03T05:58:20.657Z,29.10
2017-12-03T06:00:48.174Z,27.48
2017-12-03T06:03:15.733Z,28.12
2017-12-03T06:05:43.294Z,28.83
2017-12-03T06:08:10.853Z,28.23
2017-12-03T06:10:38.821Z,29.10
2017-12-03T06:13:06.372Z,25.52
2017-12-03T06:15:33.877Z,26.00
2017-12-03T06:18:01.454Z,25.70
2017-12-03T06:20:28.977Z,25.45
2017-12-03T06:22:56.487Z,24.23
2017-12-03T06:25:24.066Z,24.33
2017-12-03T06:27:51.585Z,24.55
2017-12-03T06:30:19.102Z,26.25
2017-12-03T06:32:46.667Z,27.33
2017-12-03T06:35:14.210Z,28.98
2017-12-03T06:37:41.769Z,29.48
2017-12-03T06:40:09.505Z,29.67
2017-12-03T06:42:37.029Z,24.85
2017-12-03T06:45:04.553Z,27.50
2017-12-03T06:47:32.313Z,29.37
2017-12-03T06:49:59.868Z,26.33
2017-12-03T06:52:27.447Z,26.33
2017-12-03T06:54:55.397Z,25.83
2017-12-03T06:57:22.975Z,25.30
2017-12-03T06:59:50.513Z,25.33
2017-12-03T07:02:18.280Z,26.60
2017-12-03T07:04:45.839Z,25.02
2017-12-03T07:07:13.348Z,24.70
2017-12-03T07:09:40.899Z,23.65
2017-12-03T07:12:08.423Z,24.58
2017-12-03T07:14:35.975Z,22.02
2017-12-03T07:17:03.736Z,22.10
2017-12-03T07:19:31.295Z,23.20
2017-12-03T07:21:58.807Z,21.52
2017-12-03T07:24:26.597Z,21.80
2017-12-03T07:26:54.222Z,21.08
2017-12-03T07:29:22.248Z,27.35
2017-12-03T07:31:49.988Z,23.38
2017-12-03T07:34:17.565Z,21.45
2017-12-03T07:36:45.078Z,20.17
2017-12-03T07:39:12.792Z,19.75
2017-12-03T07:41:40.454Z,21.60
2017-12-03T07:44:07.963Z,29.75
2017-12-03T07:46:35.537Z,23.52
2017-12-03T07:49:03.870Z,18.75
2017-12-03T07:51:31.983Z,18.08
2017-12-03T07:53:59.654Z,14.55
2017-12-03T07:56:27.255Z,16.35
2017-12-03T07:58:54.801Z,16.67
2017-12-03T08:01:24.313Z,14.10
2017-12-03T08:03:52.376Z,14.43
2017-12-03T08:06:21.368Z,14.80
2017-12-03T08:08:49.885Z,15.25
2017-12-03T08:11:17.512Z,12.93
2017-12-03T08:13:45.935Z,13.95
2017-12-03T08:16:13.591Z,13.52
2017-12-03T08:18:41.657Z,14.52
2017-12-03T08:21:09.288Z,14.32
2017-12-03T08:23:38.493Z,11.85
2017-12-03T08:26:06.150Z,13.18
2017-12-03T08:28:33.908Z,12.18
2017-12-03T08:31:01.646Z,12.30
2017-12-03T08:33:30.122Z,12.27
2017-12-03T08:35:57.669Z,13.68
2017-12-03T08:38:26.399Z,11.68
2017-12-03T08:40:53.957Z,11.75
2017-12-03T08:43:22.269Z,11.52
2017-12-03T08:45:49.996Z,14.35
2017-12-03T08:48:19.058Z,14.48
2017-12-03T08:50:46.855Z,12.20
2017-12-03T08:53:14.586Z,10.73
2017-12-03T08:55:42.158Z,13.10
2017-12-03T08:58:09.646Z,11.15
2017-12-03T09:00:37.194Z,13.65
2017-12-03T09:03:04.734Z,12.52
2017-12-03T09:05:32.430Z,11.48
2017-12-03T09:08:00.998Z,15.20
2017-12-03T09:10:28.660Z,12.00
2017-12-03T09:12:56.202Z,12.85
2017-12-03T09:15:24.497Z,14.40
2017-12-03T09:17:52.264Z,13.43
2017-12-03T09:20:20.022Z,12.90
2017-12-03T09:22:48.684Z,10.60
2017-12-03T09:25:16.281Z,11.25
2017-12-03T09:27:45.259Z,11.05
2017-12-03T09:30:13.072Z,9.80
2017-12-03T09:32:40.786Z,12.20
2017-12-03T09:35:08.552Z,10.38
2017-12-03T09:37:37.666Z,11.45
2017-12-03T09:40:06.947Z,13.30
2017-12-03T09:42:34.710Z,12.05
2017-12-03T09:45:02.884Z,13.73
2017-12-03T09:47:30.454Z,12.40
2017-12-03T09:49:58.411Z,10.25
2017-12-03T09:52:26.488Z,12.82
2017-12-03T09:54:55.382Z,10.63
2017-12-03T09:57:23.445Z,11.18
2017-12-03T09:59:51.208Z,8.90
2017-12-03T10:02:18.855Z,12.55
2017-12-03T10:04:46.449Z,12.02
2017-12-03T10:07:14.868Z,12.48
2017-12-03T10:09:42.468Z,10.68
2017-12-03T10:12:10.239Z,10.55
2017-12-03T10:14:37.793Z,12.25
2017-12-03T10:17:06.017Z,11.73
2017-12-03T10:19:33.717Z,12.98
2017-12-03T10:22:02.390Z,12.45
2017-12-03T10:24:30.280Z,11.32
2017-12-03T10:26:58.058Z,12.57
2017-12-03T10:29:26.389Z,11.48
2017-12-03T10:31:54.206Z,13.20
2017-12-03T10:34:22.279Z,11.95
2017-12-03T10:36:50.434Z,12.35
2017-12-03T10:39:18.430Z,10.95
2017-12-03T10:41:46.998Z,11.88
2017-12-03T10:44:16.102Z,14.38
2017-12-03T10:46:43.954Z,15.15
2017-12-03T10:49:11.722Z,15.25
2017-12-03T10:51:39.400Z,15.13
2017-12-03T10:54:07.008Z,13.65
2017-12-03T10:56:34.796Z,12.60
2017-12-03T10:59:02.755Z,13.13
2017-12-03T11:01:30.528Z,14.45
2017-12-03T11:03:58.284Z,12.15
2017-12-03T11:06:25.953Z,12.10
2017-12-03T11:08:53.717Z,13.18
2017-12-03T11:11:21.265Z,13.52
2017-12-03T11:13:48.866Z,12.65
2017-12-03T11:16:16.598Z,12.45
2017-12-03T11:18:44.161Z,12.55
2017-12-03T11:21:12.311Z,13.13
2017-12-03T11:23:40.384Z,12.13
2017-12-03T11:26:07.915Z,12.18
2017-12-03T11:28:35.550Z,12.70
2017-12-03T11:31:03.076Z,15.02
2017-12-03T11:33:30.660Z,10.75
2017-12-03T11:35:58.222Z,13.18
2017-12-03T11:38:25.784Z,10.45
2017-12-03T11:40:53.372Z,12.00
2017-12-03T11:43:20.980Z,12.30
2017-12-03T11:45:48.653Z,12.18
2017-12-03T11:48:16.404Z,11.65
2017-12-03T11:50:44.067Z,12.80
2017-12-03T11:53:11.625Z,12.05
2017-12-03T11:55:39.187Z,11.27
2017-12-03T11:58:07.152Z,11.95
2017-12-03T12:00:34.694Z,13.13
2017-12-03T12:03:02.448Z,13.13
2017-12-03T12:05:30.261Z,12.25
2017-12-03T12:07:58.738Z,12.93
2017-12-03T12:10:26.279Z,13.77
2017-12-03T12:12:54.145Z,12.52
2017-12-03T12:15:21.910Z,12.07
2017-12-03T12:17:49.526Z,13.05
2017-12-03T12:20:17.438Z,11.88
2017-12-03T12:22:45.007Z,12.02
2017-12-03T12:25:12.570Z,12.20
2017-12-03T12:27:40.373Z,12.15
2017-12-03T12:30:07.954Z,13.62
2017-12-03T12:32:35.535Z,11.85
2017-12-03T12:35:03.406Z,12.70
2017-12-03T12:37:31.174Z,12.85
2017-12-03T12:39:59.040Z,12.13
2017-12-03T12:42:26.630Z,13.23
2017-12-03T12:44:54.155Z,13.13
2017-12-03T12:47:21.774Z,14.13
2017-12-03T12:49:49.488Z,12.88
2017-12-03T12:52:17.036Z,13.60
2017-12-03T12:54:44.699Z,13.60
2017-12-03T12:57:13.179Z,12.57
2017-12-03T12:59:40.728Z,13.00
2017-12-03T13:02:08.297Z,10.88
2017-12-03T13:04:36.419Z,12.73
2017-12-03T13:07:04.063Z,13.18
2017-12-03T13:09:31.590Z,12.80
2017-12-03T13:11:59.374Z,14.02
2017-12-03T13:14:27.117Z,14.75
2017-12-03T13:16:54.775Z,13.38
2017-12-03T13:19:22.414Z,14.18
2017-12-03T13:21:49.999Z,13.48
2017-12-03T13:24:17.667Z,12.35
2017-12-03T13:26:45.647Z,12.48
2017-12-03T13:29:13.393Z,9.32
2017-12-03T13:31:40.935Z,12.50
2017-12-03T13:34:08.922Z,12.68
2017-12-03T13:36:36.582Z,11.65
2017-12-03T13:39:04.450Z,11.75
2017-12-03T13:41:32.422Z,11.65
2017-12-03T13:43:59.934Z,13.82
2017-12-03T13:46:27.454Z,14.52
2017-12-03T13:48:55.203Z,10.05
2017-12-03T13:51:22.756Z,10.23
2017-12-03T13:53:50.319Z,10.32
2017-12-03T13:56:17.872Z,12.40
2017-12-03T13:58:45.456Z,11.95
2017-12-03T14:01:13.096Z,14.73
2017-12-03T14:03:40.979Z,14.25
2017-12-03T14:06:08.495Z,14.02
2017-12-03T14:08:36.099Z,12.85
2017-12-03T14:11:04.137Z,11.07
2017-12-03T14:13:31.941Z,12.05
2017-12-03T14:15:59.778Z,14.07
2017-12-03T14:18:27.354Z,14.90
2017-12-03T14:20:54.949Z,15.18
2017-12-03T14:23:22.469Z,12.80
2017-12-03T14:25:50.421Z,13.60
2017-12-03T14:28:18.090Z,13.93
2017-12-03T14:30:45.660Z,16.23
2017-12-03T14:33:13.515Z,15.90
2017-12-03T14:35:41.097Z,14.05
2017-12-03T14:38:08.787Z,13.45
2017-12-03T14:40:36.398Z,13.40
2017-12-03T14:43:03.927Z,14.52
2017-12-03T14:45:31.452Z,16.33
2017-12-03T14:47:59.026Z,14.77
2017-12-03T14:50:26.551Z,15.10
2017-12-03T14:52:54.138Z,17.10
2017-12-03T14:55:21.956Z,15.40
2017-12-03T14:57:49.949Z,15.85
2017-12-03T15:00:17.816Z,14.98
2017-12-03T15:02:45.863Z,14.93
2017-12-03T15:05:13.934Z,17.08
2017-12-03T15:07:42.619Z,16.98
2017-12-03T15:10:11.070Z,15.10
2017-12-03T15:12:39.541Z,16.25
2017-12-03T15:15:07.246Z,14.93
2017-12-03T15:17:35.211Z,16.27
2017-12-03T15:20:02.828Z,15.23
2017-12-03T15:22:30.636Z,17.58
2017-12-03T15:24:58.816Z,16.70
2017-12-03T15:27:27.188Z,16.02
2017-12-03T15:29:55.619Z,15.85
2017-12-03T15:32:23.335Z,14.43
2017-12-03T15:34:51.197Z,16.65
2017-12-03T15:37:19.168Z,16.12
2017-12-03T15:39:46.843Z,18.55
2017-12-03T15:42:14.860Z,16.80
2017-12-03T15:44:44.198Z,16.05
2017-12-03T15:47:11.962Z,15.68
2017-12-03T15:49:40.115Z,16.40
2017-12-03T15:52:07.814Z,18.58
2017-12-03T15:54:36.278Z,17.25
2017-12-03T15:57:03.938Z,16.17
2017-12-03T15:59:31.704Z,16.83
2017-12-03T16:01:59.980Z,14.85
2017-12-03T16:04:27.774Z,15.85
2017-12-03T16:06:55.650Z,14.13
2017-12-03T16:09:24.316Z,18.40
2017-12-03T16:11:51.957Z,17.23
2017-12-03T16:14:19.619Z,17.30
2017-12-03T16:16:47.693Z,18.75
2017-12-03T16:19:15.310Z,17.08
2017-12-03T16:21:43.218Z,16.45
2017-12-03T16:24:12.010Z,17.87
2017-12-03T16:26:39.648Z,17.17
2017-12-03T16:29:07.242Z,16.27
2017-12-03T16:31:35.055Z,18.45
2017-12-03T16:34:02.862Z,17.00
2017-12-03T16:36:32.010Z,14.65
2017-12-03T16:38:59.656Z,16.70
2017-12-03T16:41:27.359Z,17.00
2017-12-03T16:43:56.062Z,15.32
2017-12-03T16:46:24.650Z,17.77
2017-12-03T16:48:52.255Z,15.93
2017-12-03T16:51:20.718Z,16.75
2017-12-03T16:53:47.993Z,17.50
2017-12-03T16:56:15.815Z,15.98
2017-12-03T16:58:43.700Z,14.10
2017-12-03T17:01:12.962Z,15.02
2017-12-03T17:03:40.949Z,16.80
2017-12-03T17:06:08.915Z,12.95
2017-12-03T17:08:37.494Z,14.90
2017-12-03T17:11:05.212Z,15.85
2017-12-03T17:13:33.851Z,15.38
2017-12-03T17:16:02.884Z,14.13
2017-12-03T17:18:30.909Z,15.07
2017-12-03T17:20:58.883Z,14.35
2017-12-03T17:23:26.944Z,13.30
2017-12-03T17:25:54.744Z,13.52
2017-12-03T17:28:22.474Z,12.85
2017-12-03T17:30:50.129Z,14.98
2017-12-03T17:33:18.520Z,15.65
2017-12-03T17:35:46.991Z,12.60
2017-12-03T17:38:15.006Z,13.90
2017-12-03T17:40:42.578Z,14.15
2017-12-03T17:43:10.402Z,12.57
2017-12-03T17:45:38.458Z,14.90
2017-12-03T17:48:06.222Z,14.95
2017-12-03T17:50:33.835Z,13.18
2017-12-03T17:53:01.749Z,14.68
2017-12-03T17:55:29.309Z,14.02
2017-12-03T17:57:57.146Z,13.73
2017-12-03T18:00:25.455Z,12.93
2017-12-03T18:02:53.043Z,13.98
2017-12-03T18:05:20.977Z,12.30
2017-12-03T18:07:49.084Z,11.18
2017-12-03T18:10:16.710Z,15.23
2017-12-03T18:12:44.402Z,12.65
2017-12-03T18:15:13.264Z,13.68
2017-12-03T18:17:41.536Z,15.55
2017-12-03T18:20:09.322Z,13.98
2017-12-03T18:22:37.372Z,12.13
2017-12-03T18:25:05.317Z,13.43
2017-12-03T18:27:33.112Z,11.57
2017-12-03T18:30:01.239Z,14.98
2017-12-03T18:32:29.137Z,14.65
2017-12-03T18:34:57.012Z,12.73
2017-12-03T18:37:24.881Z,13.43
2017-12-03T18:39:52.964Z,15.77
2017-12-03T18:42:20.664Z,12.70
2017-12-03T18:44:49.158Z,14.93
2017-12-03T18:47:17.056Z,12.95
2017-12-03T18:49:44.726Z,13.68
2017-12-03T18:52:12.711Z,12.37
2017-12-03T18:54:41.490Z,12.88
2017-12-03T18:57:09.243Z,13.52
2017-12-03T18:59:37.517Z,12.48
2017-12-03T19:02:05.414Z,13.07
2017-12-03T19:04:33.386Z,10.57
2017-12-03T19:07:02.918Z,12.60
2017-12-03T19:09:30.518Z,11.07
2017-12-03T19:11:58.404Z,14.43
2017-12-03T19:14:26.662Z,11.43
2017-12-03T19:16:55.098Z,15.10
2017-12-03T19:19:22.806Z,13.70
2017-12-03T19:21:50.804Z,13.77
2017-12-03T19:24:18.662Z,12.90
2017-12-03T19:26:46.405Z,9.95
2017-12-03T19:29:14.265Z,15.18
2017-12-03T19:31:41.937Z,12.80
2017-12-03T19:34:09.764Z,14.93
2017-12-03T19:36:37.409Z,10.32
2017-12-03T19:39:05.198Z,13.95
2017-12-03T19:41:33.092Z,14.55
2017-12-03T19:44:01.265Z,14.18
2017-12-03T19:46:28.822Z,13.13
2017-12-03T19:48:56.690Z,13.60
2017-12-03T19:51:24.862Z,14.07
2017-12-03T19:53:52.631Z,12.43
2017-12-03T19:56:21.504Z,12.43
2017-12-03T19:58:49.498Z,11.95
2017-12-03T20:01:17.385Z,14.43
2017-12-03T20:03:45.041Z,14.80
2017-12-03T20:06:13.101Z,16.27
2017-12-03T20:08:41.071Z,11.85
2017-12-03T20:11:08.817Z,14.38
2017-12-03T20:13:36.684Z,13.82
2017-12-03T20:16:04.550Z,13.23
2017-12-03T20:18:32.423Z,13.07
2017-12-03T20:21:00.385Z,12.57
2017-12-03T20:23:28.149Z,13.38
2017-12-03T20:25:56.025Z,12.20
2017-12-03T20:28:26.851Z,14.60
2017-12-03T20:30:54.821Z,14.73
2017-12-03T20:33:23.250Z,15.70
2017-12-03T20:35:53.077Z,14.73
2017-12-03T20:38:21.535Z,13.15
2017-12-03T20:40:50.353Z,14.38
2017-12-03T20:43:18.456Z,17.17
2017-12-03T20:45:46.729Z,15.60
2017-12-03T20:48:14.513Z,16.85
2017-12-03T20:50:42.564Z,17.95
2017-12-03T20:53:10.342Z,13.48
2017-12-03T20:55:38.195Z,16.12
2017-12-03T20:58:06.840Z,18.50
2017-12-03T21:00:35.370Z,16.17
2017-12-03T21:03:03.255Z,17.15
2017-12-03T21:05:31.110Z,17.33
2017-12-03T21:07:59.073Z,15.35
2017-12-03T21:10:27.133Z,17.27
2017-12-03T21:12:55.390Z,15.23
2017-12-03T21:15:23.802Z,17.30
2017-12-03T21:17:51.676Z,16.00
2017-12-03T21:20:19.527Z,17.85
2017-12-03T21:22:47.306Z,15.65
2017-12-03T21:25:15.287Z,15.70
2017-12-03T21:27:44.049Z,16.33
2017-12-03T21:30:12.280Z,18.95
2017-12-03T21:32:40.103Z,16.95
2017-12-03T21:35:08.470Z,14.65
2017-12-03T21:37:36.530Z,19.67
2017-12-03T21:40:04.318Z,17.40
2017-12-03T21:42:32.468Z,16.15
2017-12-03T21:45:00.133Z,15.85
2017-12-03T21:47:28.303Z,17.20
2017-12-03T21:49:56.386Z,15.25
2017-12-03T21:52:24.140Z,16.40
2017-12-03T21:54:51.943Z,15.40
2017-12-03T21:57:19.972Z,15.38
2017-12-03T21:59:47.837Z,16.40
2017-12-03T22:02:15.504Z,17.40
2017-12-03T22:04:43.469Z,15.48
2017-12-03T22:07:11.335Z,17.55
2017-12-03T22:09:39.110Z,15.73
2017-12-03T22:12:06.965Z,16.15
2017-12-03T22:14:35.856Z,15.70
2017-12-03T22:17:03.637Z,15.75
2017-12-03T22:19:31.384Z,16.85
2017-12-03T22:21:59.052Z,16.20
2017-12-03T22:24:27.742Z,17.35
2017-12-03T22:26:56.433Z,19.05
2017-12-03T22:29:24.897Z,16.35
2017-12-03T22:31:53.523Z,16.58
2017-12-03T22:34:22.307Z,16.30
2017-12-03T22:36:49.934Z,16.20
2017-12-03T22:39:17.711Z,15.95
2017-12-03T22:41:45.736Z,16.67
2017-12-03T22:44:13.267Z,16.75
2017-12-03T22:46:40.780Z,18.12
2017-12-03T22:49:08.386Z,14.48
2017-12-03T22:51:35.898Z,15.65
2017-12-03T22:54:03.421Z,16.05
2017-12-03T22:56:31.227Z,16.80
2017-12-03T22:58:58.802Z,14.48
2017-12-03T23:01:26.317Z,14.82
2017-12-03T23:03:54.103Z,16.40
2017-12-03T23:06:21.714Z,15.10
2017-12-03T23:08:49.231Z,15.70
2017-12-03T23:11:17.089Z,15.95
2017-12-03T23:13:44.599Z,14.73
2017-12-03T23:16:12.138Z,14.20
2017-12-03T23:18:40.073Z,15.50
2017-12-03T23:21:07.583Z,15.43
2017-12-03T23:23:35.095Z,15.38
2017-12-03T23:26:02.955Z,16.52
2017-12-03T23:28:30.515Z,17.08
2017-12-03T23:30:58.176Z,16.65
2017-12-03T23:33:26.227Z,14.40
2017-12-03T23:35:53.743Z,14.07
2017-12-03T23:38:21.259Z,14.73
2017-12-03T23:40:48.834Z,16.12
2017-12-03T23:43:16.398Z,17.98
2017-12-03T23:45:43.940Z,16.30
2017-12-03T23:48:11.750Z,15.77
2017-12-03T23:50:39.263Z,15.43
2017-12-03T23:53:06.777Z,15.02
2017-12-03T23:55:34.381Z,15.32
2017-12-03T23:58:01.941Z,14.98
